Time;durP1;ratioP1;P1;durP2;ratioP2;P2;SDS_P1;SDS_P2;PMS_P1;PMS_P2;Temp;Humidity;BMP_temperature;BMP_pressure;BME280_temperature;BME280_humidity;BME280_pressure;Samples;Min_cycle;Max_cycle;Signal;HPM_P1;HPM_P2
2023/05/15 00:07:05;;;;;;;23.35;11.13;;;11.90;23.60;;;;;;20642785;28;20121;-42
2023/05/15 00:17:08;;;;;;;22.05;11.10;;;11.70;21.10;;;;;;20649581;28;20049;-43
2023/05/15 00:27:09;;;;;;;18.50;9.55;;;11.70;26.80;;;;;;20640506;28;20054;-43
2023/05/15 00:37:10;;;;;;;22.67;11.18;;;11.50;22.40;;;;;;20636160;28;20045;-43
2023/05/15 00:47:13;;;;;;;25.15;11.48;;;11.40;25.30;;;;;;20644471;28;20044;-43
2023/05/15 00:57:14;;;;;;;25.08;11.82;;;11.30;26.10;;;;;;20645949;28;20038;-43
2023/05/15 01:07:15;;;;;;;22.70;12.60;;;11.20;22.60;;;;;;20645925;28;20068;-43
2023/05/15 01:17:16;;;;;;;24.77;11.43;;;11.10;24.50;;;;;;20639445;28;20772;-43
2023/05/15 01:27:40;;;;;;;24.25;12.80;;;10.90;27.10;;;;;;20631418;28;20085;-44
2023/05/15 01:37:48;;;;;;;27.83;12.40;;;10.90;33.70;;;;;;20638224;28;20038;-43
2023/05/15 01:47:53;;;;;;;23.35;10.75;;;10.80;47.30;;;;;;20633833;28;20073;-43
2023/05/15 01:57:55;;;;;;;24.10;12.80;;;10.80;55.00;;;;;;20637486;28;20033;-44
2023/05/15 02:07:56;;;;;;;26.63;12.45;;;10.60;54.70;;;;;;20628630;28;20056;-44
2023/05/15 02:17:58;;;;;;;24.15;11.35;;;10.60;57.70;;;;;;20652583;28;20041;-44
2023/05/15 02:28:00;;;;;;;25.40;11.77;;;10.60;60.70;;;;;;20624263;28;20042;-44
2023/05/15 02:38:06;;;;;;;22.02;10.80;;;10.50;63.80;;;;;;20624693;28;20042;-44
2023/05/15 02:48:07;;;;;;;21.35;10.65;;;10.40;60.60;;;;;;20627834;28;20042;-43
2023/05/15 02:58:09;;;;;;;20.80;11.30;;;10.30;66.90;;;;;;20633772;28;20123;-44
2023/05/15 03:08:10;;;;;;;20.90;9.23;;;10.40;88.10;;;;;;20629742;28;20038;-44
2023/05/15 03:18:12;;;;;;;18.08;9.07;;;10.40;95.20;;;;;;20648144;28;20046;-44
2023/05/15 03:28:13;;;;;;;17.95;8.68;;;10.30;97.70;;;;;;20649482;28;20046;-43
2023/05/15 03:38:14;;;;;;;17.20;7.95;;;10.30;97.10;;;;;;20642245;28;20052;-43
2023/05/15 03:48:15;;;;;;;18.23;7.60;;;10.30;99.90;;;;;;20640729;28;20247;-43
2023/05/15 03:58:16;;;;;;;17.20;7.75;;;10.30;99.90;;;;;;20638018;28;20702;-44
2023/05/15 04:08:17;;;;;;;13.65;7.53;;;10.40;99.90;;;;;;20647762;28;20038;-43
2023/05/15 04:18:18;;;;;;;12.52;6.55;;;10.40;99.90;;;;;;20637930;28;20045;-43
2023/05/15 04:28:20;;;;;;;14.02;7.68;;;10.40;99.90;;;;;;20639592;28;20136;-44
2023/05/15 04:38:21;;;;;;;16.92;9.07;;;10.40;99.90;;;;;;20639445;28;20289;-44
2023/05/15 04:48:22;;;;;;;16.70;9.02;;;10.40;99.90;;;;;;20631101;28;20042;-44
2023/05/15 04:58:23;;;;;;;26.08;9.38;;;10.50;99.90;;;;;;20634203;28;20399;-43
2023/05/15 05:08:24;;;;;;;18.38;10.65;;;10.50;99.90;;;;;;20636422;28;20049;-43
2023/05/15 05:18:26;;;;;;;22.30;10.68;;;10.60;99.90;;;;;;20633206;28;20033;-43
2023/05/15 05:28:27;;;;;;;18.15;10.00;;;10.60;99.90;;;;;;20633928;28;20052;-44
2023/05/15 05:38:28;;;;;;;18.48;10.07;;;10.80;94.10;;;;;;20634809;28;20058;-44
2023/05/15 05:48:29;;;;;;;18.88;10.35;;;10.90;69.00;;;;;;20640262;28;20046;-43
2023/05/15 05:58:30;;;;;;;18.60;10.38;;;11.00;68.10;;;;;;20646727;28;20038;-42
2023/05/15 06:08:31;;;;;;;19.55;11.05;;;11.30;53.50;;;;;;20643800;28;20092;-42
2023/05/15 06:18:32;;;;;;;21.10;11.93;;;11.30;47.30;;;;;;20649548;28;20034;-41
2023/05/15 06:28:33;;;;;;;21.63;10.63;;;11.40;41.50;;;;;;20653098;28;20048;-41
2023/05/15 06:38:35;;;;;;;20.02;10.88;;;11.50;36.60;;;;;;20648275;28;20053;-41
2023/05/15 06:48:36;;;;;;;18.13;9.90;;;11.70;25.50;;;;;;20642750;28;20049;-41
2023/05/15 06:58:37;;;;;;;18.38;9.02;;;11.80;20.00;;;;;;20644933;28;20417;-42
2023/05/15 07:08:38;;;;;;;17.40;8.57;;;12.00;15.10;;;;;;20662280;28;20034;-41
2023/05/15 07:18:39;;;;;;;20.35;10.50;;;12.10;18.10;;;;;;20660555;28;20201;-41
2023/05/15 07:28:40;;;;;;;17.23;8.50;;;12.30;13.80;;;;;;20643519;28;20045;-43
2023/05/15 07:38:41;;;;;;;12.90;7.82;;;12.40;10.30;;;;;;20660692;28;20506;-42
2023/05/15 07:48:42;;;;;;;21.30;9.38;;;12.50;8.10;;;;;;20656757;28;20046;-43
2023/05/15 07:58:43;;;;;;;15.95;9.07;;;12.70;6.50;;;;;;20657796;28;20490;-43
2023/05/15 08:08:44;;;;;;;19.05;9.18;;;13.00;3.40;;;;;;20657986;28;20050;-42
2023/05/15 08:18:46;;;;;;;18.60;9.95;;;13.10;1.90;;;;;;20654328;28;20543;-43
2023/05/15 08:28:47;;;;;;;19.20;8.55;;;13.10;1.00;;;;;;20656071;28;20050;-42
2023/05/15 08:38:48;;;;;;;16.17;8.85;;;13.00;1.00;;;;;;20640288;28;20045;-43
2023/05/15 08:48:51;;;;;;;22.13;11.50;;;13.00;3.30;;;;;;20640445;28;20042;-43
2023/05/15 08:58:52;;;;;;;19.27;8.75;;;13.00;5.80;;;;;;20651735;28;20042;-43
2023/05/15 09:08:55;;;;;;;21.20;11.18;;;13.00;5.10;;;;;;20656642;28;20072;-43
2023/05/15 09:18:58;;;;;;;21.67;11.32;;;13.10;7.70;;;;;;20662276;28;20809;-43
2023/05/15 09:29:02;;;;;;;16.10;8.38;;;13.00;6.10;;;;;;20646499;28;20651;-42
2023/05/15 09:39:04;;;;;;;20.15;10.07;;;13.00;8.60;;;;;;20639874;28;20433;-42
2023/05/15 09:49:05;;;;;;;24.20;11.73;;;13.00;11.30;;;;;;20651157;28;20186;-43
2023/05/15 09:59:16;;;;;;;27.83;13.20;;;13.00;10.60;;;;;;20646371;28;22164;-42
2023/05/15 10:09:17;;;;;;;23.73;12.93;;;13.10;13.00;;;;;;20647299;28;20442;-42
2023/05/15 10:19:22;;;;;;;31.02;15.68;;;13.20;14.10;;;;;;20648328;28;20064;-43
2023/05/15 10:29:25;;;;;;;23.50;12.65;;;13.20;14.30;;;;;;20662890;28;20044;-43
2023/05/15 10:39:28;;;;;;;31.80;14.73;;;13.30;14.50;;;;;;20657917;28;20045;-43
2023/05/15 10:49:29;;;;;;;27.50;14.15;;;13.40;16.90;;;;;;20655168;28;20133;-43
2023/05/15 10:59:32;;;;;;;24.30;12.63;;;13.60;15.50;;;;;;20658123;28;20042;-43
2023/05/15 11:09:34;;;;;;;22.08;12.48;;;13.70;8.30;;;;;;20652023;28;20493;-43
2023/05/15 11:19:50;;;;;;;18.80;10.60;;;14.00;9.20;;;;;;20647094;28;20402;-43
2023/05/15 11:30:06;;;;;;;16.83;9.88;;;14.30;1.00;;;;;;20661346;28;20052;-43
2023/05/15 11:40:18;;;;;;;14.77;7.28;;;14.60;1.00;;;;;;20664915;28;20049;-43
2023/05/15 11:50:20;;;;;;;9.50;5.38;;;14.90;1.00;;;;;;20661715;28;20042;-43
2023/05/15 12:00:21;;;;;;;9.52;4.88;;;15.20;1.00;;;;;;20649805;28;20053;-43
2023/05/15 12:10:23;;;;;;;10.02;4.95;;;15.40;1.00;;;;;;20662435;28;20034;-43
2023/05/15 12:20:24;;;;;;;8.95;3.78;;;15.50;1.00;;;;;;20649179;28;20057;-43
2023/05/15 12:30:25;;;;;;;7.85;4.45;;;15.10;1.00;;;;;;20665670;28;20050;-43
2023/05/15 12:40:26;;;;;;;13.48;5.22;;;15.00;1.00;;;;;;20658785;28;20038;-43
2023/05/15 12:50:29;;;;;;;11.90;5.10;;;14.70;1.00;;;;;;20661587;28;21569;-43
2023/05/15 13:00:33;;;;;;;10.93;5.00;;;14.50;1.00;;;;;;20660943;28;20026;-43
2023/05/15 13:10:36;;;;;;;10.85;3.63;;;14.60;1.00;;;;;;20649539;28;20283;-43
2023/05/15 13:20:50;;;;;;;5.28;2.17;;;14.40;1.00;;;;;;20636898;28;20384;-43
2023/05/15 13:30:51;;;;;;;6.13;2.67;;;14.20;1.00;;;;;;20671037;28;20037;-43
2023/05/15 13:40:52;;;;;;;4.85;1.92;;;13.90;1.00;;;;;;20658276;28;20041;-43
2023/05/15 13:50:53;;;;;;;8.10;2.53;;;13.90;1.00;;;;;;20620193;28;20042;-43
2023/05/15 14:00:54;;;;;;;6.95;2.55;;;13.90;1.00;;;;;;20656688;28;20041;-43
2023/05/15 14:10:55;;;;;;;7.63;2.97;;;13.80;1.00;;;;;;20618791;28;20042;-42
2023/05/15 14:20:56;;;;;;;4.00;1.92;;;13.60;1.00;;;;;;20649714;28;20056;-43
2023/05/15 14:30:58;;;;;;;4.53;1.42;;;13.70;1.00;;;;;;20650276;28;20521;-43
2023/05/15 14:40:59;;;;;;;4.68;1.25;;;13.80;1.00;;;;;;20635131;28;20042;-43
2023/05/15 14:51:00;;;;;;;2.60;1.23;;;13.70;1.00;;;;;;20642763;28;20038;-43
2023/05/15 15:01:02;;;;;;;3.28;0.70;;;13.60;1.00;;;;;;20649042;28;20446;-43
2023/05/15 15:11:04;;;;;;;4.30;1.45;;;13.40;1.00;;;;;;20615388;28;20073;-42
2023/05/15 15:21:06;;;;;;;3.75;1.95;;;13.30;1.00;;;;;;20645217;28;20034;-42
2023/05/15 15:31:08;;;;;;;5.72;1.95;;;13.20;1.00;;;;;;20646480;28;20054;-43
2023/05/15 15:41:09;;;;;;;3.20;1.30;;;13.20;1.00;;;;;;20611207;28;20513;-42
2023/05/15 15:51:10;;;;;;;3.72;1.50;;;13.20;1.00;;;;;;20644844;28;20092;-43
2023/05/15 16:01:11;;;;;;;5.72;1.52;;;13.20;1.00;;;;;;20636970;28;20029;-42
2023/05/15 16:11:14;;;;;;;3.85;1.70;;;13.30;1.00;;;;;;20635932;28;20053;-43
2023/05/15 16:21:15;;;;;;;4.72;1.88;;;13.30;1.00;;;;;;20658362;28;20320;-41
2023/05/15 16:31:16;;;;;;;7.88;2.65;;;13.20;1.00;;;;;;20660436;28;20042;-41
2023/05/15 16:41:17;;;;;;;3.67;1.52;;;13.30;1.00;;;;;;20659771;28;20049;-41
2023/05/15 16:51:19;;;;;;;3.65;0.90;;;13.30;1.00;;;;;;20633699;28;20042;-41
2023/05/15 17:01:20;;;;;;;8.73;2.97;;;13.20;1.00;;;;;;20642398;28;20120;-41
2023/05/15 17:11:21;;;;;;;7.47;1.52;;;13.10;1.00;;;;;;20652485;28;20064;-42
2023/05/15 17:21:22;;;;;;;7.18;1.52;;;12.90;1.00;;;;;;20621622;28;20057;-41
2023/05/15 17:31:23;;;;;;;10.57;1.95;;;12.70;1.00;;;;;;20641217;28;20038;-41
2023/05/15 17:41:25;;;;;;;5.88;1.95;;;12.40;1.00;;;;;;20649469;28;20046;-41
2023/05/15 17:51:26;;;;;;;4.70;1.98;;;12.20;1.50;;;;;;20642469;28;20523;-42
2023/05/15 18:01:27;;;;;;;6.88;2.20;;;12.10;6.20;;;;;;20652522;28;20038;-42
2023/05/15 18:11:28;;;;;;;3.72;2.05;;;12.00;8.20;;;;;;20642516;28;20045;-42
2023/05/15 18:21:29;;;;;;;4.13;1.65;;;11.80;6.40;;;;;;20641272;28;20042;-42
2023/05/15 18:31:31;;;;;;;3.17;0.85;;;11.80;6.50;;;;;;20641875;28;20042;-42
2023/05/15 18:41:32;;;;;;;2.13;0.77;;;11.70;2.80;;;;;;20649794;28;20049;-42
2023/05/15 18:51:34;;;;;;;3.50;1.48;;;11.40;6.70;;;;;;20661039;28;20046;-43
2023/05/15 19:01:35;;;;;;;1.50;0.50;;;11.40;13.50;;;;;;20663496;28;20362;-42
2023/05/15 19:11:36;;;;;;;3.03;0.80;;;11.30;16.30;;;;;;20651459;28;21404;-42
2023/05/15 19:21:38;;;;;;;4.43;0.88;;;10.90;16.60;;;;;;20654106;28;20034;-42
2023/05/15 19:31:40;;;;;;;3.58;1.38;;;10.70;21.70;;;;;;20648914;28;20042;-42
2023/05/15 19:41:41;;;;;;;5.63;0.90;;;10.60;14.60;;;;;;20666199;28;20644;-42
2023/05/15 19:51:42;;;;;;;5.68;1.73;;;10.50;16.40;;;;;;20648374;28;20663;-42
2023/05/15 20:01:43;;;;;;;7.40;2.20;;;10.50;17.70;;;;;;20640402;28;20410;-42
2023/05/15 20:11:44;;;;;;;13.05;1.77;;;10.40;17.50;;;;;;20649061;28;20055;-43
2023/05/15 20:21:45;;;;;;;8.95;2.10;;;10.30;6.80;;;;;;20642704;28;20457;-43
2023/05/15 20:31:46;;;;;;;8.32;2.70;;;10.20;5.00;;;;;;20633616;28;20114;-43
2023/05/15 20:41:47;;;;;;;13.23;2.10;;;10.20;4.70;;;;;;20637143;28;20076;-43
2023/05/15 20:51:48;;;;;;;7.22;1.80;;;10.10;2.20;;;;;;20642272;28;20042;-43
2023/05/15 21:01:50;;;;;;;6.43;1.70;;;10.10;2.10;;;;;;20646036;28;20038;-43
2023/05/15 21:11:51;;;;;;;9.43;2.88;;;10.00;1.00;;;;;;20647500;28;20044;-43
2023/05/15 21:21:52;;;;;;;4.80;1.95;;;10.10;1.00;;;;;;20658822;28;20052;-43
2023/05/15 21:31:53;;;;;;;5.82;1.90;;;9.90;1.00;;;;;;20660873;28;20053;-43
2023/05/15 21:41:56;;;;;;;10.48;2.95;;;9.90;1.00;;;;;;20654040;28;20061;-43
2023/05/15 21:51:58;;;;;;;10.32;1.83;;;9.80;1.00;;;;;;20625145;28;20092;-42
2023/05/15 22:02:01;;;;;;;5.18;0.95;;;9.70;1.00;;;;;;20636331;28;20083;-43
2023/05/15 22:12:02;;;;;;;6.38;2.20;;;9.60;1.00;;;;;;20646558;28;20048;-43
2023/05/15 22:22:03;;;;;;;8.75;1.70;;;9.60;1.00;;;;;;20643905;28;20046;-43
2023/05/15 22:32:05;;;;;;;4.07;1.10;;;9.60;1.00;;;;;;20632683;28;20532;-43
2023/05/15 22:42:06;;;;;;;8.57;2.13;;;9.50;1.00;;;;;;20629198;28;20784;-43
2023/05/15 22:52:07;;;;;;;10.00;2.05;;;9.50;1.00;;;;;;20643126;28;20037;-43
2023/05/15 23:02:08;;;;;;;5.03;1.20;;;9.40;1.00;;;;;;20629728;28;20214;-43
2023/05/15 23:12:09;;;;;;;3.15;1.02;;;9.40;1.00;;;;;;20631938;28;21065;-42
2023/05/15 23:22:11;;;;;;;5.53;0.90;;;9.30;1.00;;;;;;20626928;28;20053;-42
2023/05/15 23:32:12;;;;;;;4.88;2.03;;;9.30;1.00;;;;;;20635438;28;20046;-43
2023/05/15 23:42:13;;;;;;;2.72;0.73;;;9.20;1.00;;;;;;20650503;28;20081;-43
2023/05/15 23:52:14;;;;;;;8.40;1.25;;;9.20;1.00;;;;;;20639196;28;20041;-43
